createdAt,value
2018-02-10T00:00:34.836Z,89.00
2018-02-10T00:01:40.355Z,88.50
2018-02-10T00:02:45.883Z,96.60
2018-02-10T00:03:51.403Z,107.00
2018-02-10T00:04:56.929Z,97.80
2018-02-10T00:06:02.456Z,98.10
2018-02-10T00:07:07.985Z,110.10
2018-02-10T00:08:13.509Z,106.60
2018-02-10T00:09:19.039Z,111.80
2018-02-10T00:10:24.560Z,98.70
2018-02-10T00:11:30.088Z,95.00
2018-02-10T00:12:35.621Z,100.60
2018-02-10T00:13:41.144Z,102.70
2018-02-10T00:14:46.666Z,92.70
2018-02-10T00:15:52.201Z,106.40
2018-02-10T00:16:57.721Z,102.70
2018-02-10T00:18:03.250Z,112.60
2018-02-10T00:19:08.771Z,101.40
2018-02-10T00:20:14.301Z,114.10
2018-02-10T00:21:19.841Z,91.50
2018-02-10T00:22:25.358Z,93.70
2018-02-10T00:23:30.873Z,89.10
2018-02-10T00:24:36.400Z,100.50
2018-02-10T00:25:41.925Z,81.50
2018-02-10T00:26:47.452Z,90.00
2018-02-10T00:27:52.979Z,83.30
2018-02-10T00:28:58.505Z,95.60
2018-02-10T00:30:04.031Z,75.70
2018-02-10T00:31:09.557Z,85.90
2018-02-10T00:32:15.083Z,98.80
2018-02-10T00:33:20.609Z,89.10
2018-02-10T00:34:26.140Z,94.90
2018-02-10T00:35:31.664Z,95.40
2018-02-10T00:36:37.186Z,90.10
2018-02-10T00:37:42.726Z,94.10
2018-02-10T00:38:48.243Z,108.60
2018-02-10T00:39:53.765Z,112.30
2018-02-10T00:40:59.291Z,106.60
2018-02-10T00:42:04.817Z,91.30
2018-02-10T00:43:10.350Z,97.10
2018-02-10T00:44:15.871Z,84.20
2018-02-10T00:45:21.413Z,72.40
2018-02-10T00:46:26.919Z,78.00
2018-02-10T00:47:32.453Z,83.20
2018-02-10T00:48:37.976Z,82.10
2018-02-10T00:49:43.498Z,91.20
2018-02-10T00:50:49.025Z,80.30
2018-02-10T00:51:54.549Z,87.00
2018-02-10T00:53:00.078Z,83.40
2018-02-10T00:54:05.600Z,92.50
2018-02-10T00:55:11.130Z,93.00
2018-02-10T00:56:16.657Z,90.40
2018-02-10T00:57:22.182Z,78.20
2018-02-10T00:58:27.712Z,87.80
2018-02-10T00:59:33.230Z,97.90
2018-02-10T01:00:38.761Z,96.80
2018-02-10T01:01:44.288Z,86.40
2018-02-10T01:02:49.809Z,82.20
2018-02-10T01:03:55.341Z,99.30
2018-02-10T01:05:00.866Z,78.90
2018-02-10T01:06:06.440Z,78.60
2018-02-10T01:07:11.920Z,95.20
2018-02-10T01:08:17.436Z,84.90
2018-02-10T01:09:22.973Z,95.60
2018-02-10T01:10:28.492Z,93.20
2018-02-10T01:11:34.026Z,91.80
2018-02-10T01:12:39.541Z,96.00
2018-02-10T01:13:45.070Z,85.90
2018-02-10T01:14:50.592Z,85.80
2018-02-10T01:15:56.118Z,92.70
2018-02-10T01:17:01.648Z,85.80
2018-02-10T01:18:07.178Z,90.70
2018-02-10T01:19:12.695Z,87.60
2018-02-10T01:20:18.221Z,86.50
2018-02-10T01:21:23.750Z,87.30
2018-02-10T01:22:29.292Z,97.30
2018-02-10T01:23:34.798Z,97.60
2018-02-10T01:24:40.333Z,94.10
2018-02-10T01:25:45.851Z,91.40
2018-02-10T01:26:51.382Z,102.90
2018-02-10T01:27:56.902Z,109.20
2018-02-10T01:29:02.423Z,92.20
2018-02-10T01:30:07.948Z,87.90
2018-02-10T01:31:13.477Z,95.90
2018-02-10T01:32:19.002Z,85.20
2018-02-10T01:33:24.532Z,85.40
2018-02-10T01:34:30.054Z,101.70
2018-02-10T01:35:35.580Z,73.90
2018-02-10T01:36:41.116Z,98.60
2018-02-10T01:37:46.639Z,84.30
2018-02-10T01:38:52.156Z,90.60
2018-02-10T01:39:57.812Z,83.40
2018-02-10T01:41:03.212Z,92.40
2018-02-10T01:42:08.730Z,83.90
2018-02-10T01:43:14.265Z,84.60
2018-02-10T01:44:19.782Z,76.20
2018-02-10T01:45:25.309Z,76.50
2018-02-10T01:46:30.831Z,102.00
2018-02-10T01:47:36.361Z,91.90
2018-02-10T01:48:41.884Z,88.10
2018-02-10T01:49:47.412Z,93.00
2018-02-10T01:50:52.939Z,87.10
2018-02-10T01:51:58.464Z,88.50
2018-02-10T01:53:03.986Z,90.00
2018-02-10T01:54:09.514Z,87.50
2018-02-10T01:55:15.042Z,79.70
2018-02-10T01:56:20.570Z,88.40
2018-02-10T01:57:26.088Z,79.90
2018-02-10T01:58:31.612Z,85.80
2018-02-10T01:59:37.139Z,82.40
2018-02-10T02:00:42.667Z,89.60
2018-02-10T02:01:48.192Z,82.70
2018-02-10T02:02:53.714Z,86.90
2018-02-10T02:03:59.249Z,86.70
2018-02-10T02:05:04.768Z,96.20
2018-02-10T02:06:10.292Z,80.80
2018-02-10T02:07:15.820Z,91.60
2018-02-10T02:08:21.347Z,83.60
2018-02-10T02:09:26.867Z,83.80
2018-02-10T02:10:32.395Z,75.40
2018-02-10T02:11:37.920Z,98.90
2018-02-10T02:12:43.446Z,87.80
2018-02-10T02:13:48.972Z,84.50
2018-02-10T02:14:54.498Z,80.40
2018-02-10T02:16:00.026Z,71.70
2018-02-10T02:17:05.555Z,74.60
2018-02-10T02:18:11.076Z,73.60
2018-02-10T02:19:16.607Z,85.20
2018-02-10T02:20:22.134Z,80.50
2018-02-10T02:21:27.673Z,90.20
2018-02-10T02:22:33.185Z,81.40
2018-02-10T02:23:38.698Z,84.00
2018-02-10T02:24:44.225Z,86.50
2018-02-10T02:25:49.747Z,88.90
2018-02-10T02:26:55.274Z,85.00
2018-02-10T02:28:00.802Z,85.90
2018-02-10T02:29:06.337Z,93.80
2018-02-10T02:30:11.893Z,91.90
2018-02-10T02:31:17.379Z,84.70
2018-02-10T02:32:22.908Z,77.30
2018-02-10T02:33:28.431Z,80.20
2018-02-10T02:34:33.951Z,97.60
2018-02-10T02:35:39.473Z,85.00
2018-02-10T02:36:45.000Z,91.40
2018-02-10T02:37:50.531Z,85.80
2018-02-10T02:38:56.058Z,80.90
2018-02-10T02:40:01.579Z,74.30
2018-02-10T02:41:07.104Z,78.70
2018-02-10T02:42:12.633Z,87.40
2018-02-10T02:43:18.158Z,82.90
2018-02-10T02:44:23.681Z,73.50
2018-02-10T02:45:29.199Z,82.10
2018-02-10T02:46:34.729Z,86.30
2018-02-10T02:47:40.258Z,82.70
2018-02-10T02:48:45.779Z,81.20
2018-02-10T02:49:51.306Z,81.80
2018-02-10T02:50:56.830Z,84.60
2018-02-10T02:52:02.356Z,85.00
2018-02-10T02:53:07.879Z,82.10
2018-02-10T02:54:13.407Z,88.80
2018-02-10T02:55:18.928Z,92.30
2018-02-10T02:56:24.456Z,94.00
2018-02-10T02:57:29.977Z,88.00
2018-02-10T02:58:35.505Z,85.50
2018-02-10T02:59:41.033Z,99.00
2018-02-10T03:00:46.553Z,92.80
2018-02-10T03:01:52.075Z,86.70
2018-02-10T03:02:57.603Z,76.40
2018-02-10T03:04:03.128Z,82.70
2018-02-10T03:05:08.652Z,82.80
2018-02-10T03:06:14.183Z,82.80
2018-02-10T03:07:19.704Z,87.40
2018-02-10T03:08:25.231Z,80.00
2018-02-10T03:09:30.752Z,77.30
2018-02-10T03:10:36.282Z,82.30
2018-02-10T03:11:41.800Z,80.20
2018-02-10T03:12:47.333Z,84.10
2018-02-10T03:13:52.855Z,83.70
2018-02-10T03:14:58.376Z,85.40
2018-02-10T03:16:03.906Z,85.20
2018-02-10T03:17:09.426Z,86.30
2018-02-10T03:18:14.961Z,77.50
2018-02-10T03:19:20.477Z,89.00
2018-02-10T03:20:26.003Z,82.30
2018-02-10T03:21:31.528Z,81.70
2018-02-10T03:22:37.057Z,87.10
2018-02-10T03:23:42.575Z,93.70
2018-02-10T03:24:48.105Z,84.50
2018-02-10T03:25:53.626Z,86.50
2018-02-10T03:26:59.153Z,82.40
2018-02-10T03:28:04.675Z,85.80
2018-02-10T03:29:10.201Z,81.10
2018-02-10T03:30:15.725Z,85.80
2018-02-10T03:31:21.250Z,92.70
2018-02-10T03:32:26.773Z,85.40
2018-02-10T03:33:32.299Z,99.30
2018-02-10T03:34:37.826Z,83.60
2018-02-10T03:35:43.356Z,79.30
2018-02-10T03:36:48.879Z,83.10
2018-02-10T03:37:54.402Z,82.30
2018-02-10T03:38:59.928Z,76.80
2018-02-10T03:40:05.455Z,88.30
2018-02-10T03:41:10.974Z,78.50
2018-02-10T03:42:16.500Z,86.10
2018-02-10T03:43:22.020Z,86.90
2018-02-10T03:44:27.549Z,80.70
2018-02-10T03:45:33.071Z,89.60
2018-02-10T03:46:38.596Z,90.60
2018-02-10T03:47:44.122Z,93.80
2018-02-10T03:48:49.657Z,82.90
2018-02-10T03:49:55.176Z,89.00
2018-02-10T03:51:00.696Z,88.00
2018-02-10T03:52:06.222Z,85.30
2018-02-10T03:53:11.745Z,85.80
2018-02-10T03:54:17.271Z,88.10
2018-02-10T03:55:22.796Z,87.30
2018-02-10T03:56:28.320Z,88.90
2018-02-10T03:57:33.849Z,84.80
2018-02-10T03:58:39.383Z,77.60
2018-02-10T03:59:44.893Z,79.70
2018-02-10T04:00:50.416Z,86.10
2018-02-10T04:01:55.940Z,85.10
2018-02-10T04:03:01.470Z,82.50
2018-02-10T04:04:07.001Z,89.50
2018-02-10T04:05:12.529Z,79.40
2018-02-10T04:06:18.043Z,81.80
2018-02-10T04:07:23.563Z,84.50
2018-02-10T04:08:29.093Z,88.70
2018-02-10T04:09:34.612Z,89.70
2018-02-10T04:10:40.140Z,83.50
2018-02-10T04:11:45.663Z,96.70
2018-02-10T04:12:51.191Z,85.00
2018-02-10T04:13:56.706Z,86.90
2018-02-10T04:15:02.241Z,88.50
2018-02-10T04:16:07.759Z,84.90
2018-02-10T04:17:13.283Z,92.50
2018-02-10T04:18:18.807Z,93.60
2018-02-10T04:19:24.338Z,91.90
2018-02-10T04:20:29.865Z,88.30
2018-02-10T04:21:35.384Z,85.20
2018-02-10T04:22:40.911Z,97.10
2018-02-10T04:23:46.433Z,97.20
2018-02-10T04:24:52.006Z,87.70
2018-02-10T04:25:57.481Z,94.00
2018-02-10T04:27:03.009Z,93.40
2018-02-10T04:28:08.532Z,85.00
2018-02-10T04:29:14.054Z,83.10
2018-02-10T04:30:19.582Z,74.80
2018-02-10T04:31:25.105Z,90.00
2018-02-10T04:32:30.629Z,81.00
2018-02-10T04:33:36.150Z,80.60
2018-02-10T04:34:41.672Z,79.70
2018-02-10T04:35:47.199Z,84.70
2018-02-10T04:36:52.731Z,80.40
2018-02-10T04:37:58.251Z,74.00
2018-02-10T04:39:03.788Z,80.70
2018-02-10T04:40:09.306Z,80.20
2018-02-10T04:41:14.845Z,78.20
2018-02-10T04:42:20.353Z,75.50
2018-02-10T04:43:25.871Z,71.20
2018-02-10T04:44:31.397Z,77.60
2018-02-10T04:45:36.918Z,87.10
2018-02-10T04:46:42.444Z,83.70
2018-02-10T04:47:47.972Z,89.30
2018-02-10T04:48:53.492Z,77.70
2018-02-10T04:49:59.015Z,81.60
2018-02-10T04:51:04.541Z,83.10
2018-02-10T04:52:10.066Z,82.60
2018-02-10T04:53:15.589Z,87.90
2018-02-10T04:54:21.117Z,78.20
2018-02-10T04:55:26.636Z,82.90
2018-02-10T04:56:32.159Z,86.00
2018-02-10T04:57:37.684Z,74.50
2018-02-10T04:58:43.216Z,86.30
2018-02-10T04:59:48.733Z,79.20
2018-02-10T05:00:54.258Z,77.90
2018-02-10T05:01:59.784Z,82.20
2018-02-10T05:03:05.317Z,83.70
2018-02-10T05:04:10.829Z,76.00
2018-02-10T05:05:16.359Z,91.30
2018-02-10T05:06:21.880Z,80.80
2018-02-10T05:07:27.409Z,78.80
2018-02-10T05:08:32.931Z,89.70
2018-02-10T05:09:38.451Z,76.20
2018-02-10T05:10:43.977Z,85.40
2018-02-10T05:11:49.505Z,79.60
2018-02-10T05:12:55.030Z,89.10
2018-02-10T05:14:00.546Z,87.30
2018-02-10T05:15:06.070Z,75.50
2018-02-10T05:16:11.599Z,82.40
2018-02-10T05:17:17.123Z,78.90
2018-02-10T05:18:22.650Z,90.40
2018-02-10T05:19:28.168Z,98.20
2018-02-10T05:20:33.697Z,92.30
2018-02-10T05:21:39.222Z,90.50
2018-02-10T05:22:44.779Z,82.70
2018-02-10T05:23:50.269Z,79.90
2018-02-10T05:24:55.797Z,84.00
2018-02-10T05:26:01.316Z,81.30
2018-02-10T05:27:06.839Z,84.80
2018-02-10T05:28:12.366Z,94.70
2018-02-10T05:29:17.887Z,83.90
2018-02-10T05:30:23.412Z,88.10
2018-02-10T05:31:28.934Z,77.70
2018-02-10T05:32:34.461Z,81.70
2018-02-10T05:33:39.981Z,85.40
2018-02-10T05:34:45.511Z,76.40
2018-02-10T05:35:51.031Z,73.80
2018-02-10T05:36:56.558Z,74.90
2018-02-10T05:38:02.084Z,74.00
2018-02-10T05:39:07.611Z,80.60
2018-02-10T05:40:13.126Z,83.90
2018-02-10T05:41:18.653Z,83.50
2018-02-10T05:42:24.181Z,83.20
2018-02-10T05:43:29.705Z,88.70
2018-02-10T05:44:35.227Z,85.30
2018-02-10T05:45:40.752Z,81.50
2018-02-10T05:46:46.277Z,81.80
2018-02-10T05:47:51.808Z,74.00
2018-02-10T05:48:57.348Z,88.50
2018-02-10T05:50:02.850Z,79.90
2018-02-10T05:51:08.370Z,85.00
2018-02-10T05:52:13.894Z,86.10
2018-02-10T05:53:19.417Z,87.70
2018-02-10T05:54:24.942Z,84.80
2018-02-10T05:55:30.466Z,80.30
2018-02-10T05:56:35.992Z,83.20
2018-02-10T05:57:41.518Z,82.30
2018-02-10T05:58:47.042Z,74.10
2018-02-10T05:59:52.565Z,78.90
2018-02-10T06:00:58.098Z,80.70
2018-02-10T06:02:03.622Z,68.50
2018-02-10T06:03:09.131Z,84.40
2018-02-10T06:04:14.659Z,78.50
2018-02-10T06:05:20.181Z,83.30
2018-02-10T06:06:25.709Z,85.90
2018-02-10T06:07:31.230Z,72.60
2018-02-10T06:08:36.751Z,93.10
2018-02-10T06:09:42.276Z,92.20
2018-02-10T06:10:47.852Z,95.70
2018-02-10T06:11:53.327Z,87.40
2018-02-10T06:12:58.853Z,88.70
2018-02-10T06:14:04.374Z,94.90
2018-02-10T06:15:09.901Z,78.30
2018-02-10T06:16:15.422Z,86.50
2018-02-10T06:17:20.943Z,82.10
2018-02-10T06:18:26.470Z,81.30
2018-02-10T06:19:31.993Z,87.50
2018-02-10T06:20:37.520Z,87.50
2018-02-10T06:21:43.044Z,83.20
2018-02-10T06:22:48.565Z,84.20
2018-02-10T06:23:54.088Z,84.80
2018-02-10T06:24:59.613Z,95.80
2018-02-10T06:26:05.141Z,88.40
2018-02-10T06:27:10.657Z,82.00
2018-02-10T06:28:16.186Z,78.70
2018-02-10T06:29:21.706Z,77.40
2018-02-10T06:30:27.230Z,83.10
2018-02-10T06:31:32.757Z,77.40
2018-02-10T06:32:38.275Z,84.90
2018-02-10T06:33:43.801Z,86.20
2018-02-10T06:34:49.329Z,76.80
2018-02-10T06:35:54.852Z,81.60
2018-02-10T06:37:00.373Z,78.70
2018-02-10T06:38:05.900Z,85.70
2018-02-10T06:39:11.419Z,85.40
2018-02-10T06:40:16.947Z,85.00
2018-02-10T06:41:22.469Z,79.70
2018-02-10T06:42:27.996Z,89.10
2018-02-10T06:43:33.518Z,87.40
2018-02-10T06:44:39.042Z,77.60
2018-02-10T06:45:44.565Z,78.80
2018-02-10T06:46:50.087Z,79.80
2018-02-10T06:47:55.622Z,85.50
2018-02-10T06:49:01.145Z,73.30
2018-02-10T06:50:06.662Z,74.40
2018-02-10T06:51:12.191Z,81.80
2018-02-10T06:52:17.737Z,84.20
2018-02-10T06:53:23.231Z,78.30
2018-02-10T06:54:28.764Z,76.30
2018-02-10T06:55:34.280Z,91.20
2018-02-10T06:56:39.804Z,83.90
2018-02-10T06:57:45.333Z,88.80
2018-02-10T06:58:50.852Z,88.90
2018-02-10T06:59:56.381Z,84.00
2018-02-10T07:01:01.896Z,86.20
2018-02-10T07:02:07.424Z,80.90
2018-02-10T07:03:12.952Z,81.30
2018-02-10T07:04:18.467Z,89.80
2018-02-10T07:05:24.003Z,87.80
2018-02-10T07:06:29.515Z,79.50
2018-02-10T07:07:35.044Z,77.20
2018-02-10T07:08:40.564Z,82.60
2018-02-10T07:09:46.090Z,93.60
2018-02-10T07:10:51.620Z,89.90
2018-02-10T07:11:57.140Z,89.40
2018-02-10T07:13:02.659Z,91.90
2018-02-10T07:14:08.183Z,86.80
2018-02-10T07:15:13.707Z,90.60
2018-02-10T07:16:19.232Z,99.90
2018-02-10T07:17:24.756Z,89.10
2018-02-10T07:18:30.286Z,85.60
2018-02-10T07:19:35.803Z,94.30
2018-02-10T07:20:41.325Z,100.20
2018-02-10T07:21:46.851Z,92.80
2018-02-10T07:22:52.375Z,93.70
2018-02-10T07:23:57.900Z,98.80
2018-02-10T07:25:03.422Z,97.30
2018-02-10T07:26:08.947Z,88.30
2018-02-10T07:27:14.470Z,87.10
2018-02-10T07:28:20.002Z,100.70
2018-02-10T07:29:25.520Z,89.80
2018-02-10T07:30:31.047Z,90.10
2018-02-10T07:31:36.566Z,89.30
2018-02-10T07:32:42.091Z,87.90
2018-02-10T07:33:47.613Z,86.10
2018-02-10T07:34:53.136Z,88.50
2018-02-10T07:35:58.658Z,85.60
2018-02-10T07:37:04.184Z,95.10
2018-02-10T07:38:09.718Z,94.30
2018-02-10T07:39:15.231Z,90.20
2018-02-10T07:40:20.789Z,82.80
2018-02-10T07:41:26.285Z,77.80
2018-02-10T07:42:31.810Z,85.00
2018-02-10T07:43:37.325Z,90.90
2018-02-10T07:44:42.854Z,99.40
2018-02-10T07:45:48.385Z,86.40
2018-02-10T07:46:53.902Z,88.00
2018-02-10T07:47:59.426Z,81.00
2018-02-10T07:49:04.954Z,97.60
2018-02-10T07:50:10.502Z,108.80
2018-02-10T07:51:15.999Z,99.30
2018-02-10T07:52:21.523Z,92.00
2018-02-10T07:53:27.046Z,97.30
2018-02-10T07:54:32.574Z,90.10
2018-02-10T07:55:38.100Z,95.60
2018-02-10T07:56:43.620Z,104.40
2018-02-10T07:57:49.140Z,102.60
2018-02-10T07:58:54.676Z,112.10
2018-02-10T08:00:00.194Z,117.30
2018-02-10T08:01:05.719Z,117.30
2018-02-10T08:02:11.237Z,107.10
2018-02-10T08:03:16.761Z,107.90
2018-02-10T08:04:22.298Z,112.50
2018-02-10T08:05:27.816Z,105.00
2018-02-10T08:06:33.341Z,106.40
2018-02-10T08:07:38.864Z,103.70
2018-02-10T08:08:44.395Z,106.90
2018-02-10T08:09:49.954Z,109.90
2018-02-10T08:10:55.439Z,116.60
2018-02-10T08:12:00.959Z,126.40
2018-02-10T08:13:06.481Z,131.30
2018-02-10T08:14:12.008Z,145.50
2018-02-10T08:15:17.533Z,146.00
2018-02-10T08:16:23.066Z,155.10
2018-02-10T08:17:28.632Z,159.50
2018-02-10T08:18:34.105Z,140.90
2018-02-10T08:19:39.640Z,135.80
2018-02-10T08:20:45.155Z,141.90
2018-02-10T08:21:50.682Z,128.50
2018-02-10T08:22:56.208Z,132.80
2018-02-10T08:24:01.731Z,116.40
2018-02-10T08:25:07.254Z,112.60
2018-02-10T08:26:12.784Z,109.80
2018-02-10T08:27:18.309Z,117.30
2018-02-10T08:28:23.841Z,117.80
2018-02-10T08:29:29.352Z,113.90
2018-02-10T08:30:34.887Z,114.40
2018-02-10T08:31:40.408Z,110.90
2018-02-10T08:32:45.930Z,121.20
2018-02-10T08:33:51.455Z,120.50
2018-02-10T08:34:56.982Z,125.60
2018-02-10T08:36:02.502Z,126.00
2018-02-10T08:37:08.075Z,121.30
2018-02-10T08:38:13.559Z,120.50
2018-02-10T08:39:19.081Z,116.70
2018-02-10T08:40:24.606Z,155.60
2018-02-10T08:41:30.131Z,148.00
2018-02-10T08:42:35.656Z,143.00
2018-02-10T08:43:41.193Z,141.30
2018-02-10T08:44:46.704Z,126.30
2018-02-10T08:45:52.233Z,118.30
2018-02-10T08:46:57.760Z,125.90
2018-02-10T08:48:03.281Z,119.40
2018-02-10T08:49:08.815Z,116.40
2018-02-10T08:50:14.331Z,118.90
2018-02-10T08:51:19.857Z,120.90
2018-02-10T08:52:25.386Z,122.10
2018-02-10T08:53:30.912Z,116.60
2018-02-10T08:54:36.433Z,113.30
2018-02-10T08:55:41.962Z,122.20
2018-02-10T08:56:47.490Z,116.10
2018-02-10T08:57:53.009Z,112.30
2018-02-10T08:58:58.540Z,120.20
2018-02-10T09:00:04.069Z,111.40
2018-02-10T09:01:09.590Z,109.10
2018-02-10T09:02:15.116Z,118.60
2018-02-10T09:03:20.650Z,126.30
2018-02-10T09:04:26.172Z,115.10
2018-02-10T09:07:03.401Z,110.90
2018-02-10T09:08:08.892Z,121.30
2018-02-10T09:09:14.424Z,116.20
2018-02-10T09:10:19.941Z,114.30
2018-02-10T09:11:25.510Z,116.80
2018-02-10T09:12:30.999Z,131.40
2018-02-10T09:13:36.519Z,115.90
2018-02-10T09:14:42.047Z,118.00
2018-02-10T09:15:47.566Z,115.50
2018-02-10T09:16:53.092Z,117.70
2018-02-10T09:17:58.620Z,115.10
2018-02-10T09:19:04.144Z,119.20
2018-02-10T09:20:09.673Z,121.50
2018-02-10T09:21:15.196Z,109.10
2018-02-10T09:22:20.720Z,108.80
2018-02-10T09:23:26.319Z,108.40
2018-02-10T09:24:31.772Z,122.90
2018-02-10T09:25:37.297Z,126.30
2018-02-10T09:26:42.823Z,120.50
2018-02-10T09:27:48.361Z,117.60
2018-02-10T09:28:53.881Z,116.30
2018-02-10T09:29:59.401Z,116.00
2018-02-10T09:31:04.926Z,120.50
2018-02-10T09:32:10.458Z,117.30
2018-02-10T09:33:15.972Z,122.10
2018-02-10T09:34:21.503Z,118.70
2018-02-10T09:35:27.033Z,126.10
2018-02-10T09:36:32.557Z,126.50
2018-02-10T09:37:38.078Z,130.40
2018-02-10T09:38:43.609Z,166.30
2018-02-10T09:39:49.134Z,172.70
2018-02-10T09:40:54.662Z,156.90
2018-02-10T09:42:00.189Z,160.80
2018-02-10T09:43:05.711Z,266.20
2018-02-10T09:44:11.239Z,451.50
2018-02-10T09:45:16.808Z,335.70
2018-02-10T09:46:22.293Z,311.00
2018-02-10T09:47:27.842Z,336.00
2018-02-10T09:48:33.353Z,261.80
2018-02-10T09:49:38.885Z,186.00
2018-02-10T09:50:44.409Z,178.60
2018-02-10T09:51:49.929Z,135.40
2018-02-10T09:52:55.460Z,130.90
2018-02-10T09:54:00.984Z,121.60
2018-02-10T09:55:06.511Z,127.90
2018-02-10T09:56:12.050Z,111.30
2018-02-10T09:57:17.571Z,109.70
2018-02-10T09:58:23.095Z,119.80
2018-02-10T09:59:28.666Z,110.10
2018-02-10T10:00:34.153Z,118.00
2018-02-10T10:01:39.683Z,113.80
2018-02-10T10:02:45.202Z,118.70
2018-02-10T10:03:50.739Z,109.30
2018-02-10T10:04:56.268Z,106.90
2018-02-10T10:06:01.788Z,113.70
2018-02-10T10:07:07.312Z,105.10
2018-02-10T10:08:12.840Z,123.40
2018-02-10T10:09:18.367Z,114.70
2018-02-10T10:10:23.902Z,109.60
2018-02-10T10:11:29.429Z,102.80
2018-02-10T10:12:34.953Z,116.80
2018-02-10T10:13:40.479Z,116.80
2018-02-10T10:14:46.016Z,108.00
2018-02-10T10:15:51.547Z,111.20
2018-02-10T10:16:57.061Z,106.80
2018-02-10T10:18:02.605Z,103.10
2018-02-10T10:19:08.129Z,105.70
2018-02-10T10:20:13.648Z,108.20
2018-02-10T10:21:19.184Z,114.90
2018-02-10T10:22:24.702Z,103.60
2018-02-10T10:23:30.232Z,112.90
2018-02-10T10:24:35.764Z,102.30
2018-02-10T10:25:41.288Z,109.90
2018-02-10T10:26:46.815Z,107.90
2018-02-10T10:27:52.348Z,107.60
2018-02-10T10:28:57.877Z,102.90
2018-02-10T10:30:03.405Z,106.80
2018-02-10T10:31:08.934Z,101.30
2018-02-10T10:32:14.458Z,90.70
2018-02-10T10:33:19.986Z,110.80
2018-02-10T10:34:25.514Z,104.00
2018-02-10T10:35:31.043Z,107.30
2018-02-10T10:36:36.571Z,115.60
2018-02-10T10:37:42.100Z,103.70
2018-02-10T10:38:47.625Z,113.20
2018-02-10T10:39:53.160Z,107.30
2018-02-10T10:40:58.683Z,106.90
2018-02-10T10:42:04.213Z,107.60
2018-02-10T10:43:09.744Z,114.80
2018-02-10T10:44:15.271Z,106.10
2018-02-10T10:45:20.799Z,103.80
2018-02-10T10:46:26.327Z,106.70
2018-02-10T10:47:31.861Z,100.40
2018-02-10T10:48:37.386Z,108.80
2018-02-10T10:49:42.913Z,101.30
2018-02-10T10:50:48.442Z,103.80
2018-02-10T10:51:53.973Z,104.00
2018-02-10T10:52:59.502Z,107.10
2018-02-10T10:54:05.032Z,90.50
2018-02-10T10:55:10.561Z,106.20
2018-02-10T10:56:16.088Z,100.40
2018-02-10T10:57:21.634Z,105.60
2018-02-10T10:58:27.142Z,106.20
2018-02-10T10:59:32.750Z,99.50
2018-02-10T11:00:38.199Z,106.20
2018-02-10T11:01:43.729Z,103.10
2018-02-10T11:02:49.261Z,103.70
2018-02-10T11:03:54.790Z,101.60
2018-02-10T11:05:00.319Z,104.20
2018-02-10T11:06:05.849Z,105.70
2018-02-10T11:07:11.378Z,108.70
2018-02-10T11:08:16.908Z,99.10
2018-02-10T11:09:22.434Z,95.10
2018-02-10T11:10:27.972Z,107.90
2018-02-10T11:11:33.495Z,97.00
2018-02-10T11:12:39.022Z,98.70
2018-02-10T11:13:44.555Z,92.40
2018-02-10T11:14:50.088Z,108.30
2018-02-10T11:15:55.612Z,98.60
2018-02-10T11:17:01.140Z,90.20
2018-02-10T11:18:06.666Z,96.80
2018-02-10T11:19:12.197Z,106.60
2018-02-10T11:20:17.733Z,97.10
2018-02-10T11:21:23.260Z,93.00
2018-02-10T11:22:28.789Z,94.00
2018-02-10T11:23:34.320Z,94.60
2018-02-10T11:24:39.858Z,91.60
2018-02-10T11:25:45.377Z,88.10
2018-02-10T11:26:50.910Z,103.70
2018-02-10T11:27:56.433Z,91.40
2018-02-10T11:29:01.968Z,90.90
2018-02-10T11:30:07.493Z,99.10
2018-02-10T11:31:13.028Z,87.90
2018-02-10T11:32:18.564Z,87.70
2018-02-10T11:33:24.084Z,89.50
2018-02-10T11:34:29.614Z,90.60
2018-02-10T11:35:35.143Z,89.60
2018-02-10T11:36:40.672Z,92.10
2018-02-10T11:37:46.202Z,86.90
2018-02-10T11:38:51.735Z,86.40
2018-02-10T11:39:57.261Z,90.40
2018-02-10T11:41:02.796Z,87.40
2018-02-10T11:42:08.326Z,83.80
2018-02-10T11:43:13.857Z,89.80
2018-02-10T11:44:19.382Z,93.30
2018-02-10T11:45:24.916Z,82.60
2018-02-10T11:46:30.442Z,87.80
2018-02-10T11:47:35.973Z,89.00
2018-02-10T11:48:41.504Z,78.60
2018-02-10T11:49:47.283Z,100.20
2018-02-10T11:50:52.568Z,82.40
2018-02-10T11:51:58.091Z,88.00
2018-02-10T11:53:03.633Z,81.70
2018-02-10T11:55:40.863Z,79.70
2018-02-10T11:56:46.375Z,84.80
2018-02-10T11:57:51.893Z,78.70
2018-02-10T11:58:57.424Z,79.90
2018-02-10T12:00:02.955Z,75.90
2018-02-10T12:01:08.485Z,77.50
2018-02-10T12:02:14.021Z,77.00
2018-02-10T12:03:19.543Z,82.60
2018-02-10T12:04:25.073Z,73.60
2018-02-10T12:05:30.657Z,73.90
2018-02-10T12:06:36.135Z,74.90
2018-02-10T12:07:41.662Z,77.50
2018-02-10T12:08:47.188Z,83.60
2018-02-10T12:09:52.717Z,84.90
2018-02-10T12:10:58.254Z,87.50
2018-02-10T12:12:03.777Z,78.10
2018-02-10T12:13:09.316Z,86.60
2018-02-10T12:14:14.845Z,78.30
2018-02-10T12:15:20.371Z,84.60
2018-02-10T12:16:25.898Z,73.70
2018-02-10T12:17:31.428Z,80.50
2018-02-10T12:18:36.959Z,71.80
2018-02-10T12:19:42.484Z,72.20
2018-02-10T12:20:48.013Z,81.60
2018-02-10T12:21:53.542Z,68.70
2018-02-10T12:22:59.074Z,81.10
2018-02-10T12:24:04.603Z,73.90
2018-02-10T12:25:10.131Z,81.40
2018-02-10T12:26:15.662Z,81.70
2018-02-10T12:27:21.194Z,102.60
2018-02-10T12:28:26.724Z,84.80
2018-02-10T12:29:32.255Z,73.50
2018-02-10T12:30:37.786Z,80.40
2018-02-10T12:31:43.311Z,84.60
2018-02-10T12:32:48.842Z,74.10
2018-02-10T12:33:54.373Z,85.50
2018-02-10T12:34:59.911Z,82.90
2018-02-10T12:36:05.432Z,80.60
2018-02-10T12:37:10.968Z,77.30
2018-02-10T12:38:16.498Z,80.20
2018-02-10T12:39:22.032Z,77.30
2018-02-10T12:40:27.562Z,73.20
2018-02-10T12:41:33.088Z,82.20
2018-02-10T12:42:38.622Z,77.80
2018-02-10T12:43:44.152Z,75.90
2018-02-10T12:44:49.682Z,81.70
2018-02-10T12:45:55.375Z,76.10
2018-02-10T12:47:00.746Z,72.80
2018-02-10T12:48:06.277Z,81.90
2018-02-10T12:49:11.814Z,80.40
2018-02-10T12:50:17.344Z,71.70
2018-02-10T12:51:22.869Z,68.90
2018-02-10T12:52:28.405Z,76.20
2018-02-10T12:53:33.933Z,76.90
2018-02-10T12:54:39.463Z,81.00
2018-02-10T12:55:44.994Z,80.10
2018-02-10T12:56:50.523Z,74.50
2018-02-10T12:57:56.060Z,72.10
2018-02-10T12:59:01.587Z,68.60
2018-02-10T13:00:07.128Z,64.80
2018-02-10T13:01:12.650Z,67.30
2018-02-10T13:02:18.183Z,67.20
2018-02-10T13:03:23.711Z,77.30
2018-02-10T13:04:29.246Z,66.10
2018-02-10T13:05:34.781Z,66.70
2018-02-10T13:06:40.335Z,69.10
2018-02-10T13:07:45.835Z,65.10
2018-02-10T13:08:51.375Z,60.50
2018-02-10T13:09:56.904Z,59.70
2018-02-10T13:11:02.452Z,59.70
2018-02-10T13:12:07.969Z,56.40
2018-02-10T13:13:13.495Z,58.90
2018-02-10T13:14:19.034Z,57.10
2018-02-10T13:15:24.565Z,52.90
2018-02-10T13:16:30.088Z,53.60
2018-02-10T13:17:35.624Z,49.30
2018-02-10T13:18:41.153Z,46.40
2018-02-10T13:19:46.685Z,52.90
2018-02-10T13:20:52.216Z,53.20
2018-02-10T13:21:57.750Z,51.10
2018-02-10T13:23:03.273Z,49.60
2018-02-10T13:24:08.806Z,54.50
2018-02-10T13:25:14.343Z,49.50
2018-02-10T13:26:19.875Z,49.90
2018-02-10T13:27:25.402Z,58.90
2018-02-10T13:28:30.939Z,55.20
2018-02-10T13:29:36.464Z,50.20
2018-02-10T13:30:41.999Z,52.60
2018-02-10T13:31:47.527Z,57.50
2018-02-10T13:32:53.071Z,57.40
2018-02-10T13:33:58.592Z,59.30
2018-02-10T13:35:04.126Z,52.70
2018-02-10T13:36:09.652Z,60.80
2018-02-10T13:37:15.181Z,56.20
2018-02-10T13:38:20.715Z,56.20
2018-02-10T13:39:26.246Z,61.50
2018-02-10T13:40:31.772Z,54.40
2018-02-10T13:41:37.448Z,51.80
2018-02-10T13:42:42.834Z,90.50
2018-02-10T13:43:48.364Z,101.20
2018-02-10T13:44:53.896Z,74.10
2018-02-10T13:45:59.432Z,67.60
2018-02-10T13:47:04.961Z,60.30
2018-02-10T13:48:10.539Z,57.40
2018-02-10T13:49:16.025Z,61.10
2018-02-10T13:50:21.561Z,57.90
2018-02-10T13:51:27.083Z,57.60
2018-02-10T13:52:32.617Z,55.50
2018-02-10T13:53:38.148Z,58.50
2018-02-10T13:54:43.691Z,58.50
2018-02-10T13:55:49.211Z,62.90
2018-02-10T13:56:54.737Z,58.50
2018-02-10T13:58:00.272Z,58.00
2018-02-10T13:59:05.804Z,56.50
2018-02-10T14:00:11.330Z,58.10